X  Lukk Metar værinformasjon om luftfart     LGRX Patras Araxos Agamemnon Airport
Temperatur
55°F Temperatur
48°F Duggpunkt
77% Luftfuktighet



Vind
0 MPT
0 KM/T
0 M/S
0 KNP



Stille
N
Nåværende forhold

Klart Klart
Trykk 1017.92 (hPa) - 30.06 (inHg)
Sikt 6.2 (mil) - 10 (km)
Flyplass
Flyplass-kode LGRX

Plassering: Patras Araxos Agamemnon Airport
Avstand: 16 (mi)

Metar:
LGRX 252250Z 00000KT CAVOK 13/09 Q1018

Tid: 26-09-2022 01:50 EEST